sensor_id;sensor_type;location;lat;lon;timestamp;P1;durP1;ratioP1;P2;durP2;ratioP2
73959;SDS011;62316;48.920;2.342;2023-12-20T00:01:31;11.25;;;11.25;;
73959;SDS011;62316;48.920;2.342;2023-12-20T00:03:56;10.25;;;8.75;;
73959;SDS011;62316;48.920;2.342;2023-12-20T00:06:22;11.25;;;9.00;;
73959;SDS011;62316;48.920;2.342;2023-12-20T00:08:47;5.25;;;5.25;;
73959;SDS011;62316;48.920;2.342;2023-12-20T00:11:12;7.00;;;7.00;;
73959;SDS011;62316;48.920;2.342;2023-12-20T00:13:38;7.33;;;6.67;;
73959;SDS011;62316;48.920;2.342;2023-12-20T00:16:03;7.33;;;7.33;;
73959;SDS011;62316;48.920;2.342;2023-12-20T00:18:29;6.00;;;6.00;;
73959;SDS011;62316;48.920;2.342;2023-12-20T00:20:54;3.00;;;3.00;;
73959;SDS011;62316;48.920;2.342;2023-12-20T00:23:19;4.33;;;4.33;;
73959;SDS011;62316;48.920;2.342;2023-12-20T00:25:45;4.25;;;4.25;;
73959;SDS011;62316;48.920;2.342;2023-12-20T00:28:10;5.00;;;4.00;;
73959;SDS011;62316;48.920;2.342;2023-12-20T00:30:35;3.00;;;3.00;;
73959;SDS011;62316;48.920;2.342;2023-12-20T00:33:01;3.75;;;3.00;;
73959;SDS011;62316;48.920;2.342;2023-12-20T00:35:27;7.50;;;2.50;;
73959;SDS011;62316;48.920;2.342;2023-12-20T00:37:52;1.67;;;1.67;;
73959;SDS011;62316;48.920;2.342;2023-12-20T00:40:18;0.33;;;0.33;;
73959;SDS011;62316;48.920;2.342;2023-12-20T00:42:43;0.33;;;0.33;;
73959;SDS011;62316;48.920;2.342;2023-12-20T00:45:08;2.33;;;0.67;;
73959;SDS011;62316;48.920;2.342;2023-12-20T00:47:34;1.00;;;0.00;;
73959;SDS011;62316;48.920;2.342;2023-12-20T00:49:59;0.00;;;0.00;;
73959;SDS011;62316;48.920;2.342;2023-12-20T00:52:25;0.67;;;0.00;;
73959;SDS011;62316;48.920;2.342;2023-12-20T00:54:50;1.33;;;0.33;;
73959;SDS011;62316;48.920;2.342;2023-12-20T00:57:16;1.00;;;1.00;;
73959;SDS011;62316;48.920;2.342;2023-12-20T00:59:41;1.00;;;0.00;;
73959;SDS011;62316;48.920;2.342;2023-12-20T01:02:06;2.33;;;1.00;;
73959;SDS011;62316;48.920;2.342;2023-12-20T01:04:32;1.67;;;1.00;;
73959;SDS011;62316;48.920;2.342;2023-12-20T01:06:57;1.33;;;1.33;;
73959;SDS011;62316;48.920;2.342;2023-12-20T01:09:22;1.00;;;0.00;;
73959;SDS011;62316;48.920;2.342;2023-12-20T01:11:54;0.00;;;0.00;;
73959;SDS011;62316;48.920;2.342;2023-12-20T01:14:19;2.00;;;1.00;;
73959;SDS011;62316;48.920;2.342;2023-12-20T01:16:45;0.67;;;0.33;;
73959;SDS011;62316;48.920;2.342;2023-12-20T01:19:10;5.00;;;0.00;;
73959;SDS011;62316;48.920;2.342;2023-12-20T01:21:36;1.00;;;1.00;;
73959;SDS011;62316;48.920;2.342;2023-12-20T01:24:01;1.00;;;1.00;;
73959;SDS011;62316;48.920;2.342;2023-12-20T01:26:27;0.00;;;0.00;;
73959;SDS011;62316;48.920;2.342;2023-12-20T01:28:52;1.33;;;1.33;;
73959;SDS011;62316;48.920;2.342;2023-12-20T01:31:18;0.67;;;0.33;;
73959;SDS011;62316;48.920;2.342;2023-12-20T01:33:43;2.00;;;2.00;;
73959;SDS011;62316;48.920;2.342;2023-12-20T01:36:09;1.33;;;1.33;;
73959;SDS011;62316;48.920;2.342;2023-12-20T01:38:34;2.00;;;1.00;;
73959;SDS011;62316;48.920;2.342;2023-12-20T01:40:59;3.75;;;3.75;;
73959;SDS011;62316;48.920;2.342;2023-12-20T01:43:25;2.33;;;2.33;;
73959;SDS011;62316;48.920;2.342;2023-12-20T01:45:50;3.00;;;1.33;;
73959;SDS011;62316;48.920;2.342;2023-12-20T01:48:16;2.00;;;2.00;;
73959;SDS011;62316;48.920;2.342;2023-12-20T01:50:44;2.00;;;1.75;;
73959;SDS011;62316;48.920;2.342;2023-12-20T01:53:10;1.00;;;1.00;;
73959;SDS011;62316;48.920;2.342;2023-12-20T01:55:38;1.00;;;1.00;;
73959;SDS011;62316;48.920;2.342;2023-12-20T01:58:04;1.33;;;1.33;;
73959;SDS011;62316;48.920;2.342;2023-12-20T02:00:30;1.33;;;1.00;;
73959;SDS011;62316;48.920;2.342;2023-12-20T02:02:56;2.67;;;1.00;;
73959;SDS011;62316;48.920;2.342;2023-12-20T02:05:23;2.00;;;2.00;;
73959;SDS011;62316;48.920;2.342;2023-12-20T02:07:49;2.50;;;1.75;;
73959;SDS011;62316;48.920;2.342;2023-12-20T02:10:15;3.00;;;1.67;;
73959;SDS011;62316;48.920;2.342;2023-12-20T02:12:41;4.00;;;4.00;;
73959;SDS011;62316;48.920;2.342;2023-12-20T02:15:06;2.67;;;2.00;;
73959;SDS011;62316;48.920;2.342;2023-12-20T02:17:32;4.33;;;3.67;;
73959;SDS011;62316;48.920;2.342;2023-12-20T02:19:57;7.00;;;3.67;;
73959;SDS011;62316;48.920;2.342;2023-12-20T02:22:23;3.00;;;3.00;;
73959;SDS011;62316;48.920;2.342;2023-12-20T02:24:48;6.33;;;6.00;;
73959;SDS011;62316;48.920;2.342;2023-12-20T02:27:21;4.00;;;3.00;;
73959;SDS011;62316;48.920;2.342;2023-12-20T02:29:48;3.00;;;3.00;;
73959;SDS011;62316;48.920;2.342;2023-12-20T02:32:15;3.00;;;3.00;;
73959;SDS011;62316;48.920;2.342;2023-12-20T02:34:41;3.25;;;2.00;;
73959;SDS011;62316;48.920;2.342;2023-12-20T02:37:13;2.00;;;2.00;;
73959;SDS011;62316;48.920;2.342;2023-12-20T02:39:38;3.00;;;3.00;;
73959;SDS011;62316;48.920;2.342;2023-12-20T02:42:03;3.00;;;3.00;;
73959;SDS011;62316;48.920;2.342;2023-12-20T02:44:29;3.25;;;1.00;;
73959;SDS011;62316;48.920;2.342;2023-12-20T02:46:54;1.00;;;1.00;;
73959;SDS011;62316;48.920;2.342;2023-12-20T02:49:19;3.33;;;2.00;;
73959;SDS011;62316;48.920;2.342;2023-12-20T02:51:45;3.33;;;2.33;;
73959;SDS011;62316;48.920;2.342;2023-12-20T02:54:11;1.00;;;1.00;;
73959;SDS011;62316;48.920;2.342;2023-12-20T02:56:36;1.33;;;1.33;;
73959;SDS011;62316;48.920;2.342;2023-12-20T02:59:02;1.00;;;1.00;;
73959;SDS011;62316;48.920;2.342;2023-12-20T03:01:30;1.33;;;1.00;;
73959;SDS011;62316;48.920;2.342;2023-12-20T03:03:55;2.00;;;1.25;;
73959;SDS011;62316;48.920;2.342;2023-12-20T03:06:21;3.00;;;1.33;;
73959;SDS011;62316;48.920;2.342;2023-12-20T03:08:46;1.50;;;1.50;;
73959;SDS011;62316;48.920;2.342;2023-12-20T03:11:11;3.00;;;1.50;;
73959;SDS011;62316;48.920;2.342;2023-12-20T03:13:37;2.33;;;2.00;;
73959;SDS011;62316;48.920;2.342;2023-12-20T03:16:09;4.25;;;2.00;;
73959;SDS011;62316;48.920;2.342;2023-12-20T03:18:35;1.00;;;1.00;;
73959;SDS011;62316;48.920;2.342;2023-12-20T03:21:00;4.67;;;2.00;;
73959;SDS011;62316;48.920;2.342;2023-12-20T03:23:26;2.00;;;2.00;;
73959;SDS011;62316;48.920;2.342;2023-12-20T03:25:52;1.00;;;1.00;;
73959;SDS011;62316;48.920;2.342;2023-12-20T03:28:17;1.25;;;1.25;;
73959;SDS011;62316;48.920;2.342;2023-12-20T03:30:43;0.75;;;0.75;;
73959;SDS011;62316;48.920;2.342;2023-12-20T03:33:09;1.00;;;1.00;;
73959;SDS011;62316;48.920;2.342;2023-12-20T03:35:34;4.00;;;2.00;;
73959;SDS011;62316;48.920;2.342;2023-12-20T03:38:06;2.50;;;2.50;;
73959;SDS011;62316;48.920;2.342;2023-12-20T03:40:32;2.00;;;2.00;;
73959;SDS011;62316;48.920;2.342;2023-12-20T03:42:57;3.00;;;3.00;;
73959;SDS011;62316;48.920;2.342;2023-12-20T03:45:22;2.00;;;1.75;;
73959;SDS011;62316;48.920;2.342;2023-12-20T03:47:48;1.33;;;1.00;;
73959;SDS011;62316;48.920;2.342;2023-12-20T03:50:13;2.00;;;2.00;;
73959;SDS011;62316;48.920;2.342;2023-12-20T03:52:39;2.33;;;1.00;;
73959;SDS011;62316;48.920;2.342;2023-12-20T03:55:04;1.00;;;1.00;;
73959;SDS011;62316;48.920;2.342;2023-12-20T03:57:30;2.00;;;2.00;;
73959;SDS011;62316;48.920;2.342;2023-12-20T03:59:56;3.00;;;1.00;;
73959;SDS011;62316;48.920;2.342;2023-12-20T04:02:21;2.33;;;2.33;;
73959;SDS011;62316;48.920;2.342;2023-12-20T04:04:46;1.00;;;1.00;;
73959;SDS011;62316;48.920;2.342;2023-12-20T04:07:12;3.25;;;2.25;;
73959;SDS011;62316;48.920;2.342;2023-12-20T04:09:37;4.00;;;1.00;;
73959;SDS011;62316;48.920;2.342;2023-12-20T04:12:09;4.00;;;2.00;;
73959;SDS011;62316;48.920;2.342;2023-12-20T04:14:34;2.33;;;2.00;;
73959;SDS011;62316;48.920;2.342;2023-12-20T04:17:00;2.50;;;1.75;;
73959;SDS011;62316;48.920;2.342;2023-12-20T04:19:25;3.00;;;1.50;;
73959;SDS011;62316;48.920;2.342;2023-12-20T04:21:50;2.00;;;2.00;;
73959;SDS011;62316;48.920;2.342;2023-12-20T04:24:16;3.00;;;1.50;;
73959;SDS011;62316;48.920;2.342;2023-12-20T04:26:41;5.50;;;2.75;;
73959;SDS011;62316;48.920;2.342;2023-12-20T04:29:06;0.75;;;0.25;;
73959;SDS011;62316;48.920;2.342;2023-12-20T04:31:32;2.50;;;1.50;;
73959;SDS011;62316;48.920;2.342;2023-12-20T04:33:57;1.50;;;1.25;;
73959;SDS011;62316;48.920;2.342;2023-12-20T04:36:22;2.00;;;2.00;;
73959;SDS011;62316;48.920;2.342;2023-12-20T04:38:48;2.00;;;1.00;;
73959;SDS011;62316;48.920;2.342;2023-12-20T04:41:14;0.67;;;0.67;;
73959;SDS011;62316;48.920;2.342;2023-12-20T04:43:43;3.33;;;0.00;;
73959;SDS011;62316;48.920;2.342;2023-12-20T04:46:09;1.00;;;1.00;;
73959;SDS011;62316;48.920;2.342;2023-12-20T04:48:34;2.33;;;1.00;;
73959;SDS011;62316;48.920;2.342;2023-12-20T04:50:59;2.50;;;1.25;;
73959;SDS011;62316;48.920;2.342;2023-12-20T04:53:25;2.00;;;1.00;;
73959;SDS011;62316;48.920;2.342;2023-12-20T04:55:51;1.00;;;1.00;;
73959;SDS011;62316;48.920;2.342;2023-12-20T04:58:16;2.25;;;1.75;;
73959;SDS011;62316;48.920;2.342;2023-12-20T05:00:41;2.33;;;1.00;;
73959;SDS011;62316;48.920;2.342;2023-12-20T05:03:06;2.50;;;1.50;;
73959;SDS011;62316;48.920;2.342;2023-12-20T05:05:33;1.00;;;1.00;;
73959;SDS011;62316;48.920;2.342;2023-12-20T05:07:58;1.00;;;1.00;;
73959;SDS011;62316;48.920;2.342;2023-12-20T05:10:23;2.00;;;1.00;;
73959;SDS011;62316;48.920;2.342;2023-12-20T05:12:55;2.00;;;1.00;;
73959;SDS011;62316;48.920;2.342;2023-12-20T05:15:20;2.33;;;1.00;;
73959;SDS011;62316;48.920;2.342;2023-12-20T05:17:46;5.00;;;1.00;;
73959;SDS011;62316;48.920;2.342;2023-12-20T05:20:11;2.00;;;1.33;;
73959;SDS011;62316;48.920;2.342;2023-12-20T05:22:36;6.00;;;2.00;;
73959;SDS011;62316;48.920;2.342;2023-12-20T05:25:02;3.00;;;1.67;;
73959;SDS011;62316;48.920;2.342;2023-12-20T05:27:27;0.00;;;0.00;;
73959;SDS011;62316;48.920;2.342;2023-12-20T05:29:53;1.33;;;1.33;;
73959;SDS011;62316;48.920;2.342;2023-12-20T05:32:22;2.00;;;1.00;;
73959;SDS011;62316;48.920;2.342;2023-12-20T05:34:48;3.00;;;0.00;;
73959;SDS011;62316;48.920;2.342;2023-12-20T05:37:13;2.00;;;2.00;;
73959;SDS011;62316;48.920;2.342;2023-12-20T05:39:38;2.33;;;2.33;;
73959;SDS011;62316;48.920;2.342;2023-12-20T05:42:04;3.33;;;1.67;;
73959;SDS011;62316;48.920;2.342;2023-12-20T05:44:29;3.00;;;3.00;;
73959;SDS011;62316;48.920;2.342;2023-12-20T05:46:55;2.00;;;2.00;;
73959;SDS011;62316;48.920;2.342;2023-12-20T05:49:20;2.00;;;2.00;;
73959;SDS011;62316;48.920;2.342;2023-12-20T05:51:46;1.33;;;1.33;;
73959;SDS011;62316;48.920;2.342;2023-12-20T05:54:12;4.67;;;1.33;;
73959;SDS011;62316;48.920;2.342;2023-12-20T05:56:38;0.67;;;0.67;;
73959;SDS011;62316;48.920;2.342;2023-12-20T05:59:03;2.33;;;2.33;;
73959;SDS011;62316;48.920;2.342;2023-12-20T06:01:28;3.33;;;2.33;;
73959;SDS011;62316;48.920;2.342;2023-12-20T06:03:54;3.00;;;2.00;;
73959;SDS011;62316;48.920;2.342;2023-12-20T06:06:19;1.67;;;1.67;;
73959;SDS011;62316;48.920;2.342;2023-12-20T06:08:44;1.00;;;1.00;;
73959;SDS011;62316;48.920;2.342;2023-12-20T06:11:10;1.33;;;1.00;;
73959;SDS011;62316;48.920;2.342;2023-12-20T06:13:35;0.00;;;0.00;;
73959;SDS011;62316;48.920;2.342;2023-12-20T06:16:01;1.33;;;1.33;;
73959;SDS011;62316;48.920;2.342;2023-12-20T06:18:26;4.25;;;2.75;;
73959;SDS011;62316;48.920;2.342;2023-12-20T06:20:52;2.50;;;1.25;;
73959;SDS011;62316;48.920;2.342;2023-12-20T06:23:17;1.00;;;1.00;;
73959;SDS011;62316;48.920;2.342;2023-12-20T06:25:43;5.25;;;2.00;;
73959;SDS011;62316;48.920;2.342;2023-12-20T06:28:09;1.75;;;1.75;;
73959;SDS011;62316;48.920;2.342;2023-12-20T06:30:35;4.50;;;1.50;;
73959;SDS011;62316;48.920;2.342;2023-12-20T06:33:01;1.00;;;0.00;;
73959;SDS011;62316;48.920;2.342;2023-12-20T06:35:26;3.67;;;0.00;;
73959;SDS011;62316;48.920;2.342;2023-12-20T06:37:51;4.00;;;4.00;;
73959;SDS011;62316;48.920;2.342;2023-12-20T06:40:17;3.75;;;2.75;;
73959;SDS011;62316;48.920;2.342;2023-12-20T06:42:43;2.33;;;1.33;;
73959;SDS011;62316;48.920;2.342;2023-12-20T06:45:09;3.75;;;1.50;;
73959;SDS011;62316;48.920;2.342;2023-12-20T06:47:35;2.50;;;2.50;;
73959;SDS011;62316;48.920;2.342;2023-12-20T06:50:00;4.50;;;3.00;;
73959;SDS011;62316;48.920;2.342;2023-12-20T06:52:26;2.00;;;2.00;;
73959;SDS011;62316;48.920;2.342;2023-12-20T06:54:51;5.00;;;3.00;;
73959;SDS011;62316;48.920;2.342;2023-12-20T06:57:17;3.00;;;2.00;;
73959;SDS011;62316;48.920;2.342;2023-12-20T06:59:46;1.00;;;1.00;;
73959;SDS011;62316;48.920;2.342;2023-12-20T07:02:17;3.00;;;2.00;;
73959;SDS011;62316;48.920;2.342;2023-12-20T07:04:46;1.00;;;1.00;;
73959;SDS011;62316;48.920;2.342;2023-12-20T07:07:12;5.67;;;2.67;;
73959;SDS011;62316;48.920;2.342;2023-12-20T07:09:38;4.33;;;2.00;;
73959;SDS011;62316;48.920;2.342;2023-12-20T07:12:13;6.00;;;6.00;;
73959;SDS011;62316;48.920;2.342;2023-12-20T07:14:39;5.25;;;3.75;;
73959;SDS011;62316;48.920;2.342;2023-12-20T07:17:04;2.00;;;1.50;;
73959;SDS011;62316;48.920;2.342;2023-12-20T07:19:30;7.25;;;3.50;;
73959;SDS011;62316;48.920;2.342;2023-12-20T07:21:55;4.50;;;3.00;;
73959;SDS011;62316;48.920;2.342;2023-12-20T07:24:21;3.75;;;2.00;;
73959;SDS011;62316;48.920;2.342;2023-12-20T07:26:46;3.00;;;1.75;;
73959;SDS011;62316;48.920;2.342;2023-12-20T07:29:11;3.00;;;2.00;;
73959;SDS011;62316;48.920;2.342;2023-12-20T07:31:38;10.00;;;8.00;;
73959;SDS011;62316;48.920;2.342;2023-12-20T07:34:04;5.25;;;3.00;;
73959;SDS011;62316;48.920;2.342;2023-12-20T07:36:30;3.00;;;2.00;;
73959;SDS011;62316;48.920;2.342;2023-12-20T07:38:55;6.00;;;6.00;;
73959;SDS011;62316;48.920;2.342;2023-12-20T07:41:21;8.25;;;2.00;;
73959;SDS011;62316;48.920;2.342;2023-12-20T07:43:48;3.00;;;2.00;;
73959;SDS011;62316;48.920;2.342;2023-12-20T07:46:14;3.50;;;1.75;;
73959;SDS011;62316;48.920;2.342;2023-12-20T07:48:39;3.75;;;3.75;;
73959;SDS011;62316;48.920;2.342;2023-12-20T07:51:06;2.67;;;2.67;;
73959;SDS011;62316;48.920;2.342;2023-12-20T07:53:33;3.75;;;2.00;;
73959;SDS011;62316;48.920;2.342;2023-12-20T07:56:01;4.75;;;3.25;;
73959;SDS011;62316;48.920;2.342;2023-12-20T07:58:29;7.25;;;5.75;;
73959;SDS011;62316;48.920;2.342;2023-12-20T08:00:56;6.67;;;3.67;;
73959;SDS011;62316;48.920;2.342;2023-12-20T08:03:22;2.25;;;1.00;;
73959;SDS011;62316;48.920;2.342;2023-12-20T08:05:49;2.67;;;2.67;;
73959;SDS011;62316;48.920;2.342;2023-12-20T08:08:15;2.00;;;2.00;;
73959;SDS011;62316;48.920;2.342;2023-12-20T08:10:43;8.00;;;6.00;;
73959;SDS011;62316;48.920;2.342;2023-12-20T08:13:08;5.00;;;3.50;;
73959;SDS011;62316;48.920;2.342;2023-12-20T08:15:34;4.00;;;3.00;;
73959;SDS011;62316;48.920;2.342;2023-12-20T08:17:59;3.00;;;1.75;;
73959;SDS011;62316;48.920;2.342;2023-12-20T08:20:24;6.50;;;4.00;;
73959;SDS011;62316;48.920;2.342;2023-12-20T08:22:50;5.50;;;2.00;;
73959;SDS011;62316;48.920;2.342;2023-12-20T08:25:18;7.50;;;5.00;;
73959;SDS011;62316;48.920;2.342;2023-12-20T08:27:44;6.50;;;4.00;;
73959;SDS011;62316;48.920;2.342;2023-12-20T08:30:12;7.25;;;4.00;;
73959;SDS011;62316;48.920;2.342;2023-12-20T08:32:39;3.00;;;3.00;;
73959;SDS011;62316;48.920;2.342;2023-12-20T08:35:04;4.25;;;4.25;;
73959;SDS011;62316;48.920;2.342;2023-12-20T08:37:31;10.75;;;6.00;;
73959;SDS011;62316;48.920;2.342;2023-12-20T08:39:59;3.75;;;3.75;;
73959;SDS011;62316;48.920;2.342;2023-12-20T08:42:29;5.50;;;3.75;;
73959;SDS011;62316;48.920;2.342;2023-12-20T08:44:58;2.75;;;2.75;;
73959;SDS011;62316;48.920;2.342;2023-12-20T08:47:24;8.00;;;4.00;;
73959;SDS011;62316;48.920;2.342;2023-12-20T08:49:52;5.25;;;4.00;;
73959;SDS011;62316;48.920;2.342;2023-12-20T08:52:25;6.25;;;4.50;;
73959;SDS011;62316;48.920;2.342;2023-12-20T08:54:53;7.50;;;4.00;;
73959;SDS011;62316;48.920;2.342;2023-12-20T08:57:40;4.00;;;4.00;;
73959;SDS011;62316;48.920;2.342;2023-12-20T09:00:22;3.50;;;2.50;;
73959;SDS011;62316;48.920;2.342;2023-12-20T09:02:50;6.75;;;5.50;;
73959;SDS011;62316;48.920;2.342;2023-12-20T09:05:16;5.25;;;3.25;;
73959;SDS011;62316;48.920;2.342;2023-12-20T09:07:43;7.00;;;4.75;;
73959;SDS011;62316;48.920;2.342;2023-12-20T09:10:08;7.50;;;3.00;;
73959;SDS011;62316;48.920;2.342;2023-12-20T09:12:34;4.75;;;3.50;;
73959;SDS011;62316;48.920;2.342;2023-12-20T09:18:30;2.75;;;2.00;;
73959;SDS011;62316;48.920;2.342;2023-12-20T09:20:55;3.00;;;2.25;;
73959;SDS011;62316;48.920;2.342;2023-12-20T09:23:24;3.33;;;2.00;;
73959;SDS011;62316;48.920;2.342;2023-12-20T09:26:01;3.00;;;2.33;;
73959;SDS011;62316;48.920;2.342;2023-12-20T09:28:27;3.33;;;2.33;;
73959;SDS011;62316;48.920;2.342;2023-12-20T09:30:53;8.00;;;5.50;;
73959;SDS011;62316;48.920;2.342;2023-12-20T09:33:18;7.33;;;2.00;;
73959;SDS011;62316;48.920;2.342;2023-12-20T09:35:43;7.00;;;3.00;;
73959;SDS011;62316;48.920;2.342;2023-12-20T09:38:09;2.75;;;2.75;;
73959;SDS011;62316;48.920;2.342;2023-12-20T09:40:34;7.75;;;5.50;;
73959;SDS011;62316;48.920;2.342;2023-12-20T09:43:03;9.00;;;7.75;;
73959;SDS011;62316;48.920;2.342;2023-12-20T09:45:32;5.00;;;3.00;;
73959;SDS011;62316;48.920;2.342;2023-12-20T09:48:34;4.00;;;4.00;;
73959;SDS011;62316;48.920;2.342;2023-12-20T09:51:12;4.50;;;3.50;;
73959;SDS011;62316;48.920;2.342;2023-12-20T09:53:38;3.50;;;2.00;;
73959;SDS011;62316;48.920;2.342;2023-12-20T09:56:05;10.50;;;3.50;;
73959;SDS011;62316;48.920;2.342;2023-12-20T09:58:31;5.25;;;2.50;;
73959;SDS011;62316;48.920;2.342;2023-12-20T10:00:56;2.75;;;2.75;;
73959;SDS011;62316;48.920;2.342;2023-12-20T10:03:23;4.00;;;4.00;;
73959;SDS011;62316;48.920;2.342;2023-12-20T10:05:57;2.75;;;2.75;;
73959;SDS011;62316;48.920;2.342;2023-12-20T10:08:32;10.50;;;4.25;;
73959;SDS011;62316;48.920;2.342;2023-12-20T10:10:59;3.67;;;3.00;;
73959;SDS011;62316;48.920;2.342;2023-12-20T10:13:29;7.33;;;5.00;;
73959;SDS011;62316;48.920;2.342;2023-12-20T10:15:55;6.33;;;3.00;;
73959;SDS011;62316;48.920;2.342;2023-12-20T10:18:32;5.67;;;2.33;;
73959;SDS011;62316;48.920;2.342;2023-12-20T10:20:58;2.33;;;2.33;;
73959;SDS011;62316;48.920;2.342;2023-12-20T10:23:32;3.33;;;3.33;;
73959;SDS011;62316;48.920;2.342;2023-12-20T10:26:01;7.75;;;7.75;;
73959;SDS011;62316;48.920;2.342;2023-12-20T10:28:26;8.50;;;6.75;;
73959;SDS011;62316;48.920;2.342;2023-12-20T10:30:59;5.25;;;4.00;;
73959;SDS011;62316;48.920;2.342;2023-12-20T10:33:25;2.67;;;2.33;;
73959;SDS011;62316;48.920;2.342;2023-12-20T10:35:52;6.33;;;3.67;;
73959;SDS011;62316;48.920;2.342;2023-12-20T10:38:18;5.67;;;4.00;;
73959;SDS011;62316;48.920;2.342;2023-12-20T10:40:45;4.00;;;3.00;;
73959;SDS011;62316;48.920;2.342;2023-12-20T10:43:11;3.00;;;2.00;;
73959;SDS011;62316;48.920;2.342;2023-12-20T10:45:36;4.33;;;3.67;;
73959;SDS011;62316;48.920;2.342;2023-12-20T10:48:02;7.33;;;3.00;;
73959;SDS011;62316;48.920;2.342;2023-12-20T10:50:28;4.67;;;3.33;;
73959;SDS011;62316;48.920;2.342;2023-12-20T10:52:55;8.00;;;6.33;;
73959;SDS011;62316;48.920;2.342;2023-12-20T10:55:23;8.33;;;7.00;;
73959;SDS011;62316;48.920;2.342;2023-12-20T10:58:15;5.67;;;4.00;;
73959;SDS011;62316;48.920;2.342;2023-12-20T11:00:40;9.67;;;7.67;;
73959;SDS011;62316;48.920;2.342;2023-12-20T11:03:06;3.33;;;2.67;;
73959;SDS011;62316;48.920;2.342;2023-12-20T11:08:22;6.00;;;3.00;;
73959;SDS011;62316;48.920;2.342;2023-12-20T11:11:02;4.25;;;4.25;;
73959;SDS011;62316;48.920;2.342;2023-12-20T11:13:32;8.50;;;7.00;;
73959;SDS011;62316;48.920;2.342;2023-12-20T11:16:05;5.25;;;4.50;;
73959;SDS011;62316;48.920;2.342;2023-12-20T11:18:31;3.25;;;3.25;;
73959;SDS011;62316;48.920;2.342;2023-12-20T11:21:05;3.00;;;3.00;;
73959;SDS011;62316;48.920;2.342;2023-12-20T11:23:31;7.00;;;4.00;;
73959;SDS011;62316;48.920;2.342;2023-12-20T11:26:01;8.00;;;3.00;;
73959;SDS011;62316;48.920;2.342;2023-12-20T11:28:28;6.75;;;5.00;;
73959;SDS011;62316;48.920;2.342;2023-12-20T11:30:55;3.00;;;3.00;;
73959;SDS011;62316;48.920;2.342;2023-12-20T11:33:42;7.67;;;4.67;;
73959;SDS011;62316;48.920;2.342;2023-12-20T11:36:15;5.50;;;4.50;;
73959;SDS011;62316;48.920;2.342;2023-12-20T11:38:56;7.50;;;4.50;;
73959;SDS011;62316;48.920;2.342;2023-12-20T11:41:26;8.50;;;6.00;;
73959;SDS011;62316;48.920;2.342;2023-12-20T11:43:55;4.00;;;4.00;;
73959;SDS011;62316;48.920;2.342;2023-12-20T11:46:21;7.00;;;5.00;;
73959;SDS011;62316;48.920;2.342;2023-12-20T11:48:54;7.00;;;3.00;;
73959;SDS011;62316;48.920;2.342;2023-12-20T11:51:26;5.67;;;2.33;;
73959;SDS011;62316;48.920;2.342;2023-12-20T11:54:02;5.50;;;5.50;;
73959;SDS011;62316;48.920;2.342;2023-12-20T11:56:38;7.67;;;5.33;;
73959;SDS011;62316;48.920;2.342;2023-12-20T11:59:09;5.67;;;4.00;;
73959;SDS011;62316;48.920;2.342;2023-12-20T12:01:36;3.75;;;2.75;;
73959;SDS011;62316;48.920;2.342;2023-12-20T12:04:04;5.00;;;4.00;;
73959;SDS011;62316;48.920;2.342;2023-12-20T12:06:30;3.75;;;3.75;;
73959;SDS011;62316;48.920;2.342;2023-12-20T12:08:59;5.33;;;4.00;;
73959;SDS011;62316;48.920;2.342;2023-12-20T12:11:25;4.00;;;2.00;;
73959;SDS011;62316;48.920;2.342;2023-12-20T12:13:55;7.67;;;4.00;;
73959;SDS011;62316;48.920;2.342;2023-12-20T12:16:26;5.50;;;5.00;;
73959;SDS011;62316;48.920;2.342;2023-12-20T12:18:58;4.25;;;4.00;;
73959;SDS011;62316;48.920;2.342;2023-12-20T12:21:23;3.67;;;3.67;;
73959;SDS011;62316;48.920;2.342;2023-12-20T12:23:49;3.00;;;2.00;;
73959;SDS011;62316;48.920;2.342;2023-12-20T12:26:15;7.00;;;5.00;;
73959;SDS011;62316;48.920;2.342;2023-12-20T12:28:40;4.75;;;4.25;;
73959;SDS011;62316;48.920;2.342;2023-12-20T12:31:07;4.75;;;4.00;;
73959;SDS011;62316;48.920;2.342;2023-12-20T12:33:33;7.67;;;4.67;;
73959;SDS011;62316;48.920;2.342;2023-12-20T12:35:59;6.00;;;3.00;;
73959;SDS011;62316;48.920;2.342;2023-12-20T12:38:30;4.00;;;3.67;;
73959;SDS011;62316;48.920;2.342;2023-12-20T12:40:55;4.25;;;3.00;;
73959;SDS011;62316;48.920;2.342;2023-12-20T12:43:21;7.25;;;3.25;;
73959;SDS011;62316;48.920;2.342;2023-12-20T12:45:47;7.00;;;6.00;;
73959;SDS011;62316;48.920;2.342;2023-12-20T12:48:13;5.50;;;5.50;;
73959;SDS011;62316;48.920;2.342;2023-12-20T12:50:40;5.50;;;4.00;;
73959;SDS011;62316;48.920;2.342;2023-12-20T12:53:08;11.75;;;7.00;;
73959;SDS011;62316;48.920;2.342;2023-12-20T12:55:34;11.67;;;6.33;;
73959;SDS011;62316;48.920;2.342;2023-12-20T12:58:01;5.00;;;5.00;;
73959;SDS011;62316;48.920;2.342;2023-12-20T13:00:30;5.25;;;5.25;;
73959;SDS011;62316;48.920;2.342;2023-12-20T13:02:56;6.25;;;4.25;;
73959;SDS011;62316;48.920;2.342;2023-12-20T13:05:21;8.75;;;5.00;;
73959;SDS011;62316;48.920;2.342;2023-12-20T13:07:47;9.00;;;5.00;;
73959;SDS011;62316;48.920;2.342;2023-12-20T13:10:12;6.25;;;3.00;;
73959;SDS011;62316;48.920;2.342;2023-12-20T13:12:38;4.25;;;2.00;;
73959;SDS011;62316;48.920;2.342;2023-12-20T13:15:06;5.50;;;3.00;;
73959;SDS011;62316;48.920;2.342;2023-12-20T13:17:32;2.50;;;2.00;;
73959;SDS011;62316;48.920;2.342;2023-12-20T13:19:59;8.00;;;4.50;;
73959;SDS011;62316;48.920;2.342;2023-12-20T13:22:28;3.75;;;3.00;;
73959;SDS011;62316;48.920;2.342;2023-12-20T13:24:53;4.25;;;4.25;;
73959;SDS011;62316;48.920;2.342;2023-12-20T13:27:18;6.25;;;4.00;;
73959;SDS011;62316;48.920;2.342;2023-12-20T13:29:46;8.00;;;5.33;;
73959;SDS011;62316;48.920;2.342;2023-12-20T13:32:11;3.25;;;3.25;;
73959;SDS011;62316;48.920;2.342;2023-12-20T13:37:56;6.00;;;3.67;;
73959;SDS011;62316;48.920;2.342;2023-12-20T13:40:36;3.67;;;2.00;;
73959;SDS011;62316;48.920;2.342;2023-12-20T13:43:02;4.00;;;2.33;;
73959;SDS011;62316;48.920;2.342;2023-12-20T13:45:37;5.00;;;5.00;;
73959;SDS011;62316;48.920;2.342;2023-12-20T13:48:03;7.67;;;5.33;;
73959;SDS011;62316;48.920;2.342;2023-12-20T13:50:29;4.00;;;4.00;;
73959;SDS011;62316;48.920;2.342;2023-12-20T13:52:55;4.00;;;2.67;;
73959;SDS011;62316;48.920;2.342;2023-12-20T13:55:20;4.00;;;2.00;;
73959;SDS011;62316;48.920;2.342;2023-12-20T13:57:50;2.00;;;2.00;;
73959;SDS011;62316;48.920;2.342;2023-12-20T14:00:15;3.00;;;2.00;;
73959;SDS011;62316;48.920;2.342;2023-12-20T14:02:41;0.67;;;0.67;;
73959;SDS011;62316;48.920;2.342;2023-12-20T14:05:07;1.00;;;1.00;;
73959;SDS011;62316;48.920;2.342;2023-12-20T14:07:34;2.00;;;2.00;;
73959;SDS011;62316;48.920;2.342;2023-12-20T14:10:01;9.33;;;3.00;;
73959;SDS011;62316;48.920;2.342;2023-12-20T14:12:27;1.67;;;1.67;;
73959;SDS011;62316;48.920;2.342;2023-12-20T14:14:53;5.00;;;3.00;;
73959;SDS011;62316;48.920;2.342;2023-12-20T14:17:21;3.33;;;3.33;;
73959;SDS011;62316;48.920;2.342;2023-12-20T14:19:46;0.67;;;0.33;;
73959;SDS011;62316;48.920;2.342;2023-12-20T14:22:12;5.00;;;2.00;;
73959;SDS011;62316;48.920;2.342;2023-12-20T14:24:42;1.33;;;1.00;;
73959;SDS011;62316;48.920;2.342;2023-12-20T14:27:08;3.00;;;2.00;;
73959;SDS011;62316;48.920;2.342;2023-12-20T14:29:34;2.00;;;0.00;;
73959;SDS011;62316;48.920;2.342;2023-12-20T14:32:00;2.00;;;1.00;;
73959;SDS011;62316;48.920;2.342;2023-12-20T14:34:27;3.67;;;3.00;;
73959;SDS011;62316;48.920;2.342;2023-12-20T14:36:53;2.67;;;2.00;;
73959;SDS011;62316;48.920;2.342;2023-12-20T14:39:18;3.00;;;2.00;;
73959;SDS011;62316;48.920;2.342;2023-12-20T14:41:44;2.00;;;2.00;;
73959;SDS011;62316;48.920;2.342;2023-12-20T14:44:10;8.00;;;4.67;;
73959;SDS011;62316;48.920;2.342;2023-12-20T14:46:35;5.00;;;2.00;;
73959;SDS011;62316;48.920;2.342;2023-12-20T14:49:01;4.00;;;2.67;;
73959;SDS011;62316;48.920;2.342;2023-12-20T14:51:27;5.00;;;2.00;;
73959;SDS011;62316;48.920;2.342;2023-12-20T14:54:00;4.75;;;4.00;;
73959;SDS011;62316;48.920;2.342;2023-12-20T14:56:26;4.67;;;2.67;;